createdAt,value
2023-03-17T00:01:40.301Z,0.77
2023-03-17T00:06:36.462Z,0.80
2023-03-17T00:11:37.748Z,0.70
2023-03-17T00:16:31.165Z,0.70
2023-03-17T00:21:29.946Z,0.80
2023-03-17T00:26:21.884Z,0.60
2023-03-17T00:31:30.326Z,0.70
2023-03-17T00:36:28.955Z,0.70
2023-03-17T00:41:21.377Z,0.70
2023-03-17T00:46:17.651Z,0.60
2023-03-17T00:51:09.217Z,0.63
2023-03-17T00:56:03.185Z,0.60
2023-03-17T01:00:56.923Z,0.50
2023-03-17T01:05:48.453Z,0.50
2023-03-17T01:10:41.194Z,0.50
2023-03-17T01:15:36.365Z,0.50
2023-03-17T01:20:34.890Z,0.70
2023-03-17T01:25:28.142Z,0.60
2023-03-17T01:30:31.878Z,0.50
2023-03-17T01:35:26.348Z,0.67
2023-03-17T01:40:25.881Z,0.50
2023-03-17T01:45:46.775Z,0.70
2023-03-17T01:50:43.148Z,0.60
2023-03-17T01:55:40.499Z,0.60
2023-03-17T02:00:32.686Z,0.60
2023-03-17T02:05:27.518Z,0.60
2023-03-17T02:10:23.372Z,0.60
2023-03-17T02:15:17.373Z,0.73
2023-03-17T02:20:32.695Z,0.57
2023-03-17T02:25:31.158Z,0.60
2023-03-17T02:30:28.980Z,0.52
2023-03-17T02:35:21.373Z,0.60
2023-03-17T02:40:17.072Z,0.60
2023-03-17T02:45:15.697Z,0.60
2023-03-17T02:50:14.490Z,0.50
2023-03-17T02:55:11.809Z,0.45
2023-03-17T03:00:03.599Z,0.50
2023-03-17T03:04:58.971Z,0.50
2023-03-17T03:09:52.199Z,0.50
2023-03-17T03:14:43.492Z,0.55
2023-03-17T03:19:35.096Z,0.50
2023-03-17T03:24:38.849Z,0.57
2023-03-17T03:29:43.049Z,0.50
2023-03-17T03:34:46.027Z,0.50
2023-03-17T03:39:43.802Z,0.53
2023-03-17T03:44:34.295Z,0.47
2023-03-17T03:49:27.156Z,0.43
2023-03-17T03:54:17.068Z,0.50
2023-03-17T03:59:15.722Z,0.63
2023-03-17T04:04:17.160Z,0.50
2023-03-17T04:09:14.657Z,0.50
2023-03-17T04:14:10.286Z,0.70
2023-03-17T04:19:39.386Z,0.50
2023-03-17T04:24:37.881Z,0.80
2023-03-17T04:29:34.608Z,0.50
2023-03-17T04:34:39.856Z,0.60
2023-03-17T04:39:33.457Z,0.50
2023-03-17T04:44:25.262Z,0.60
2023-03-17T04:49:20.698Z,0.40
2023-03-17T04:54:19.497Z,0.40
2023-03-17T04:59:14.552Z,0.50
2023-03-17T05:04:05.764Z,0.43
2023-03-17T05:08:58.707Z,0.45
2023-03-17T05:14:00.453Z,0.50
2023-03-17T05:18:57.749Z,0.50
2023-03-17T05:23:58.464Z,0.40
2023-03-17T05:28:50.409Z,0.50
2023-03-17T05:33:48.361Z,0.50
2023-03-17T05:38:50.885Z,0.40
2023-03-17T05:43:47.081Z,0.40
2023-03-17T05:48:37.987Z,0.50
2023-03-17T05:53:37.118Z,0.40
2023-03-17T05:58:31.230Z,0.47
2023-03-17T06:03:24.116Z,0.55
2023-03-17T06:08:16.811Z,0.40
2023-03-17T06:13:11.505Z,0.60
2023-03-17T06:18:13.260Z,0.43
2023-03-17T06:23:11.956Z,0.50
2023-03-17T06:28:35.486Z,0.50
2023-03-17T06:33:26.560Z,0.50
2023-03-17T06:38:19.813Z,0.47
2023-03-17T06:43:17.601Z,0.70
2023-03-17T06:48:09.102Z,0.50
2023-03-17T06:53:07.646Z,0.60
2023-03-17T06:58:07.476Z,0.70
2023-03-17T07:03:05.285Z,0.50
2023-03-17T07:07:59.585Z,0.60
2023-03-17T07:12:49.638Z,0.50
2023-03-17T07:17:39.810Z,0.60
2023-03-17T07:22:33.411Z,0.60
2023-03-17T07:27:50.530Z,0.57
2023-03-17T07:32:44.115Z,0.60
2023-03-17T07:37:47.276Z,0.60
2023-03-17T07:42:42.702Z,0.70
2023-03-17T07:47:32.907Z,0.80
2023-03-17T07:52:23.933Z,0.80
2023-03-17T07:57:17.216Z,0.80
2023-03-17T08:02:13.507Z,0.60
2023-03-17T08:07:07.458Z,0.70
2023-03-17T08:12:02.158Z,0.85
2023-03-17T08:17:05.405Z,0.88
2023-03-17T08:22:01.327Z,0.70
2023-03-17T08:26:52.538Z,0.88
2023-03-17T08:31:46.898Z,0.65
2023-03-17T08:36:46.076Z,0.85
2023-03-17T08:41:43.621Z,0.73
2023-03-17T08:46:36.208Z,0.63
2023-03-17T08:51:31.120Z,0.68
2023-03-17T08:56:38.090Z,0.70
2023-03-17T09:01:33.024Z,0.70
2023-03-17T09:06:24.605Z,0.80
2023-03-17T09:11:20.160Z,0.70
2023-03-17T09:16:13.773Z,0.90
2023-03-17T09:21:11.043Z,0.80
2023-03-17T09:26:07.937Z,0.80
2023-03-17T09:31:11.708Z,0.80
2023-03-17T09:36:16.917Z,0.80
2023-03-17T09:41:26.303Z,1.42
2023-03-17T09:46:33.498Z,0.73
2023-03-17T09:51:34.487Z,1.50
2023-03-17T09:56:30.134Z,1.10
2023-03-17T10:01:28.931Z,0.73
2023-03-17T10:06:44.187Z,1.13
2023-03-17T10:11:46.392Z,1.10
2023-03-17T10:16:57.698Z,1.27
2023-03-17T10:22:04.114Z,1.52
2023-03-17T10:26:57.961Z,1.30
2023-03-17T10:31:50.443Z,1.80
2023-03-17T10:37:00.050Z,1.92
2023-03-17T10:42:04.445Z,1.67
2023-03-17T10:47:01.378Z,1.55
2023-03-17T10:51:58.938Z,1.77
2023-03-17T10:56:55.287Z,2.22
2023-03-17T11:01:56.895Z,1.77
2023-03-17T11:06:55.407Z,1.98
2023-03-17T11:11:52.683Z,2.25
2023-03-17T11:16:55.162Z,2.58
2023-03-17T11:22:05.417Z,2.40
2023-03-17T11:27:03.531Z,2.97
2023-03-17T11:32:13.516Z,2.45
2023-03-17T11:37:17.643Z,2.58
2023-03-17T11:42:18.462Z,2.33
2023-03-17T11:47:20.261Z,2.17
2023-03-17T11:52:28.893Z,3.10
2023-03-17T11:57:25.658Z,3.33
2023-03-17T12:02:24.909Z,3.15
2023-03-17T12:07:27.512Z,2.85
2023-03-17T12:12:31.941Z,3.03
2023-03-17T12:17:38.663Z,3.10
2023-03-17T12:22:42.954Z,2.90
2023-03-17T12:28:09.824Z,2.65
2023-03-17T12:33:17.800Z,3.03
2023-03-17T12:38:24.961Z,3.42
2023-03-17T12:44:01.143Z,3.50
2023-03-17T12:49:25.102Z,3.38
2023-03-17T12:54:30.287Z,3.53
2023-03-17T12:59:32.602Z,3.42
2023-03-17T13:04:29.418Z,3.38
2023-03-17T13:10:25.801Z,4.47
2023-03-17T13:15:34.109Z,4.07
2023-03-17T13:20:44.373Z,4.00
2023-03-17T13:25:55.479Z,3.92
2023-03-17T13:31:02.689Z,4.00
2023-03-17T13:36:39.131Z,4.40
2023-03-17T13:42:17.685Z,4.35
2023-03-17T13:47:28.704Z,4.35
2023-03-17T13:52:25.189Z,4.15
2023-03-17T13:57:35.281Z,4.00
2023-03-17T14:02:29.622Z,3.95
2023-03-17T14:07:26.890Z,3.78
2023-03-17T14:12:29.370Z,3.92
2023-03-17T14:17:45.856Z,3.60
2023-03-17T14:22:45.479Z,3.97
2023-03-17T14:27:41.992Z,3.80
2023-03-17T14:32:36.565Z,3.67
2023-03-17T14:37:31.438Z,3.65
2023-03-17T14:42:32.047Z,3.87
2023-03-17T14:47:35.984Z,3.50
2023-03-17T14:52:44.496Z,3.67
2023-03-17T14:57:42.149Z,3.57
2023-03-17T15:08:29.618Z,3.23
2023-03-17T15:13:19.900Z,2.03
2023-03-17T15:18:18.564Z,2.50
2023-03-17T15:23:24.162Z,1.80
2023-03-17T15:28:31.561Z,2.27
2023-03-17T15:33:25.939Z,2.42
2023-03-17T15:38:19.466Z,2.37
2023-03-17T15:43:09.693Z,2.63
2023-03-17T15:48:00.380Z,2.70
2023-03-17T15:53:00.219Z,2.67
2023-03-17T15:57:55.659Z,2.63
2023-03-17T16:02:54.243Z,2.13
2023-03-17T16:07:45.131Z,2.30
2023-03-17T16:12:41.687Z,2.20
2023-03-17T16:17:41.951Z,1.98
2023-03-17T16:22:44.669Z,2.07
2023-03-17T16:27:37.028Z,1.80
2023-03-17T16:32:28.685Z,2.00
2023-03-17T16:37:21.799Z,2.00
2023-03-17T16:42:25.754Z,2.13
2023-03-17T16:47:20.646Z,1.53
2023-03-17T16:52:13.326Z,1.60
2023-03-17T16:57:09.136Z,2.20
2023-03-17T17:02:19.058Z,1.67
2023-03-17T17:07:23.029Z,1.50
2023-03-17T17:12:19.587Z,1.25
2023-03-17T17:17:14.100Z,1.48
2023-03-17T17:22:10.189Z,1.70
2023-03-17T17:27:02.843Z,1.45
2023-03-17T17:31:59.140Z,2.30
2023-03-17T17:36:50.487Z,1.80
2023-03-17T17:41:40.683Z,1.80
2023-03-17T17:46:37.986Z,2.20
2023-03-17T17:51:37.983Z,1.92
2023-03-17T17:56:47.648Z,2.65
2023-03-17T18:01:44.083Z,1.75
2023-03-17T18:06:37.111Z,2.10
2023-03-17T18:11:27.233Z,2.20
2023-03-17T18:16:20.437Z,2.05
2023-03-17T18:21:11.473Z,2.10
2023-03-17T18:26:07.217Z,2.20
2023-03-17T18:31:10.876Z,2.30
2023-03-17T18:36:10.436Z,1.70
2023-03-17T18:41:15.607Z,2.30
2023-03-17T18:46:08.330Z,3.08
2023-03-17T19:59:56.567Z,3.53
2023-03-17T20:04:50.194Z,3.67
2023-03-17T20:09:42.395Z,2.58
2023-03-17T20:14:32.381Z,3.13
2023-03-17T20:19:27.910Z,3.50
2023-03-17T20:24:20.513Z,4.30
2023-03-17T20:29:24.922Z,3.65
2023-03-17T20:34:20.427Z,3.78
2023-03-17T20:39:21.438Z,4.30
2023-03-17T20:44:18.234Z,3.67
2023-03-17T20:49:10.621Z,4.22
2023-03-17T20:54:02.737Z,4.80
2023-03-17T20:59:07.488Z,5.05
2023-03-17T21:04:01.302Z,4.95
2023-03-17T21:08:58.341Z,5.25
2023-03-17T21:13:51.197Z,6.25
2023-03-17T21:18:55.318Z,5.93
2023-03-17T21:23:47.551Z,6.72
2023-03-17T21:28:41.315Z,7.00
2023-03-17T21:33:34.972Z,6.40
2023-03-17T21:38:29.921Z,7.25
2023-03-17T21:43:29.254Z,6.80
2023-03-17T21:48:22.912Z,8.07
2023-03-17T21:53:17.768Z,7.57
2023-03-17T21:58:16.262Z,7.73
2023-03-17T22:03:17.788Z,8.35
2023-03-17T22:08:14.732Z,8.40
2023-03-17T22:13:06.373Z,8.30
2023-03-17T22:18:03.278Z,8.85
2023-03-17T22:22:54.461Z,9.23
2023-03-17T22:27:48.692Z,8.73
2023-03-17T22:32:44.160Z,9.17
2023-03-17T22:37:42.481Z,9.00
2023-03-17T22:42:40.014Z,9.90
2023-03-17T22:47:30.564Z,9.30
2023-03-17T22:52:22.140Z,9.57
2023-03-17T22:57:26.291Z,10.33
2023-03-17T23:02:18.626Z,9.90
2023-03-17T23:07:18.713Z,9.93
2023-03-17T23:12:16.124Z,10.52
2023-03-17T23:17:10.981Z,10.35
2023-03-17T23:22:02.302Z,10.98
2023-03-17T23:26:54.760Z,11.23
2023-03-17T23:31:48.261Z,11.68
2023-03-17T23:36:46.383Z,11.63
2023-03-17T23:41:39.340Z,12.40
2023-03-17T23:46:32.103Z,12.63
2023-03-17T23:51:28.290Z,12.05
2023-03-17T23:56:27.715Z,11.70
